createdAt,value
2023-02-22T00:00:54.548Z,74.94
2023-02-22T00:03:32.428Z,74.98
2023-02-22T00:06:07.416Z,75.01
2023-02-22T00:08:40.524Z,74.92
2023-02-22T00:11:15.303Z,74.94
2023-02-22T00:13:47.559Z,74.98
2023-02-22T00:16:21.309Z,74.91
2023-02-22T00:18:54.580Z,75.01
2023-02-22T00:21:26.614Z,74.96
2023-02-22T00:24:00.518Z,75.00
2023-02-22T00:26:36.062Z,74.90
2023-02-22T00:29:09.139Z,74.85
2023-02-22T00:31:41.482Z,74.80
2023-02-22T00:34:14.544Z,74.71
2023-02-22T00:36:50.074Z,74.85
2023-02-22T00:39:22.461Z,74.75
2023-02-22T00:41:54.467Z,74.80
2023-02-22T00:44:27.648Z,74.71
2023-02-22T00:47:01.307Z,74.73
2023-02-22T00:49:33.196Z,74.82
2023-02-22T00:52:09.353Z,74.90
2023-02-22T00:54:41.426Z,74.83
2023-02-22T00:57:13.951Z,74.82
2023-02-22T00:59:46.287Z,75.00
2023-02-22T01:02:18.752Z,74.96
2023-02-22T01:04:52.861Z,74.98
2023-02-22T01:07:24.947Z,74.93
2023-02-22T01:09:59.401Z,74.87
2023-02-22T01:12:31.797Z,74.77
2023-02-22T01:15:04.894Z,74.59
2023-02-22T01:17:37.674Z,74.70
2023-02-22T01:20:13.877Z,74.82
2023-02-22T01:22:48.850Z,74.70
2023-02-22T01:25:23.766Z,74.69
2023-02-22T01:27:57.101Z,74.74
2023-02-22T01:30:32.970Z,74.56
2023-02-22T01:33:08.205Z,74.59
2023-02-22T01:35:42.099Z,74.67
2023-02-22T01:38:15.745Z,74.74
2023-02-22T01:40:51.574Z,74.72
2023-02-22T01:43:26.309Z,74.86
2023-02-22T01:46:02.782Z,75.10
2023-02-22T01:48:41.697Z,74.83
2023-02-22T01:51:18.219Z,74.70
2023-02-22T01:53:56.114Z,74.66
2023-02-22T01:56:32.148Z,74.77
2023-02-22T01:59:07.997Z,74.81
2023-02-22T02:01:43.064Z,74.82
2023-02-22T02:04:19.224Z,74.88
2023-02-22T02:06:51.571Z,74.82
2023-02-22T02:09:32.393Z,74.81
2023-02-22T02:12:06.520Z,74.91
2023-02-22T02:14:40.575Z,74.81
2023-02-22T02:17:17.825Z,74.86
2023-02-22T02:19:59.828Z,74.92
2023-02-22T02:22:44.962Z,74.96
2023-02-22T02:26:12.025Z,75.01
2023-02-22T02:29:29.782Z,74.99
2023-02-22T02:32:29.055Z,75.08
2023-02-22T02:35:13.662Z,75.09
2023-02-22T02:37:54.413Z,75.10
2023-02-22T02:40:31.730Z,75.07
2023-02-22T02:43:11.888Z,75.08
2023-02-22T02:45:49.356Z,75.07
2023-02-22T02:48:26.826Z,75.13
2023-02-22T02:51:02.265Z,75.08
2023-02-22T02:53:38.616Z,74.99
2023-02-22T02:56:10.838Z,75.02
2023-02-22T02:58:53.105Z,75.11
2023-02-22T03:01:46.437Z,74.97
2023-02-22T03:04:49.014Z,74.97
2023-02-22T03:07:34.602Z,75.06
2023-02-22T03:10:28.006Z,75.03
2023-02-22T03:13:10.236Z,75.05
2023-02-22T03:15:52.602Z,75.14
2023-02-22T03:18:31.085Z,75.08
2023-02-22T03:21:08.807Z,75.12
2023-02-22T03:23:49.417Z,75.06
2023-02-22T03:26:27.120Z,75.11
2023-02-22T03:29:05.293Z,75.14
2023-02-22T03:31:41.694Z,75.08
2023-02-22T03:34:18.459Z,75.08
2023-02-22T03:36:56.122Z,75.03
2023-02-22T03:39:31.373Z,75.03
2023-02-22T03:42:09.163Z,74.99
2023-02-22T03:44:44.717Z,75.03
2023-02-22T03:47:24.596Z,75.01
2023-02-22T03:49:58.571Z,75.09
2023-02-22T03:52:30.915Z,75.15
2023-02-22T03:55:04.215Z,75.24
2023-02-22T03:57:40.400Z,75.24
2023-02-22T04:00:19.092Z,75.27
2023-02-22T04:02:51.487Z,75.33
2023-02-22T04:05:26.134Z,75.19
2023-02-22T04:07:59.934Z,75.34
2023-02-22T04:10:33.811Z,75.26
2023-02-22T04:13:07.703Z,75.23
2023-02-22T04:15:43.855Z,75.38
2023-02-22T04:18:17.050Z,75.38
2023-02-22T04:20:51.787Z,75.33
2023-02-22T04:23:46.434Z,75.33
2023-02-22T04:26:18.868Z,75.46
2023-02-22T04:28:56.432Z,75.37
2023-02-22T04:31:30.441Z,75.44
2023-02-22T04:34:04.240Z,75.49
2023-02-22T04:36:39.243Z,75.55
2023-02-22T04:39:11.524Z,75.47
2023-02-22T04:41:43.668Z,75.66
2023-02-22T04:44:17.165Z,75.57
2023-02-22T04:46:49.521Z,75.74
2023-02-22T04:49:22.244Z,75.74
2023-02-22T04:51:54.605Z,75.59
2023-02-22T04:54:30.741Z,75.65
2023-02-22T04:57:03.038Z,75.62
2023-02-22T04:59:35.085Z,75.57
2023-02-22T05:02:07.610Z,75.61
2023-02-22T05:04:40.379Z,75.65
2023-02-22T05:07:12.827Z,75.65
2023-02-22T05:09:45.154Z,75.57
2023-02-22T05:12:17.521Z,75.76
2023-02-22T05:14:49.575Z,75.63
2023-02-22T05:17:21.832Z,75.66
2023-02-22T05:19:53.939Z,75.61
2023-02-22T05:22:26.058Z,75.55
2023-02-22T05:24:58.613Z,75.64
2023-02-22T05:27:30.604Z,75.63
2023-02-22T05:30:02.590Z,75.70
2023-02-22T05:32:35.439Z,75.75
2023-02-22T05:35:08.554Z,75.73
2023-02-22T05:37:40.527Z,75.66
2023-02-22T05:40:14.492Z,75.66
2023-02-22T05:42:48.905Z,75.70
2023-02-22T05:45:23.793Z,75.67
2023-02-22T05:47:56.909Z,75.62
2023-02-22T05:50:33.314Z,75.62
2023-02-22T05:53:05.951Z,75.64
2023-02-22T05:55:37.988Z,75.96
2023-02-22T05:58:10.176Z,75.99
2023-02-22T06:00:42.186Z,76.26
2023-02-22T06:03:14.490Z,76.21
2023-02-22T06:05:46.631Z,76.22
2023-02-22T06:08:19.182Z,76.38
2023-02-22T06:10:51.274Z,76.51
2023-02-22T06:13:23.468Z,76.35
2023-02-22T06:15:55.476Z,76.43
2023-02-22T06:18:30.567Z,76.55
2023-02-22T06:21:03.412Z,76.42
2023-02-22T06:23:35.737Z,76.35
2023-02-22T06:26:08.098Z,76.36
2023-02-22T06:28:40.106Z,76.39
2023-02-22T06:31:12.191Z,76.24
2023-02-22T06:33:44.318Z,76.38
2023-02-22T06:36:16.304Z,76.49
2023-02-22T06:38:48.524Z,76.54
2023-02-22T06:41:20.557Z,76.51
2023-02-22T06:43:52.739Z,76.74
2023-02-22T06:46:24.771Z,76.71
2023-02-22T06:48:59.972Z,76.55
2023-02-22T06:51:36.925Z,76.36
2023-02-22T06:54:09.214Z,76.50
2023-02-22T06:56:41.284Z,76.41
2023-02-22T06:59:13.520Z,76.47
2023-02-22T07:01:45.604Z,76.33
2023-02-22T07:04:17.939Z,76.18
2023-02-22T07:06:52.086Z,76.03
2023-02-22T07:09:24.522Z,75.91
2023-02-22T07:11:57.161Z,75.85
2023-02-22T07:14:29.809Z,75.83
2023-02-22T07:17:03.449Z,75.78
2023-02-22T07:19:35.515Z,75.88
2023-02-22T07:22:07.520Z,76.01
2023-02-22T07:24:41.478Z,75.98
2023-02-22T07:27:13.506Z,76.03
2023-02-22T07:29:47.024Z,76.02
2023-02-22T07:32:19.227Z,75.91
2023-02-22T07:34:51.686Z,75.81
2023-02-22T07:37:23.648Z,75.74
2023-02-22T07:39:55.860Z,75.86
2023-02-22T07:42:27.901Z,76.02
2023-02-22T07:45:00.218Z,76.06
2023-02-22T07:47:32.169Z,75.96
2023-02-22T07:50:04.768Z,75.91
2023-02-22T07:52:37.157Z,75.85
2023-02-22T07:55:09.694Z,76.07
2023-02-22T07:57:41.795Z,75.96
2023-02-22T08:00:16.701Z,76.00
2023-02-22T08:02:48.942Z,76.12
2023-02-22T08:05:22.296Z,76.22
2023-02-22T08:07:54.499Z,76.10
2023-02-22T08:10:28.948Z,75.94
2023-02-22T08:13:03.689Z,75.81
2023-02-22T08:15:38.040Z,75.80
2023-02-22T08:18:11.750Z,75.92
2023-02-22T08:20:45.821Z,75.83
2023-02-22T08:23:19.006Z,75.68
2023-02-22T08:25:51.173Z,75.67
2023-02-22T08:28:25.511Z,75.69
2023-02-22T08:30:57.492Z,75.70
2023-02-22T08:33:29.568Z,75.61
2023-02-22T08:36:02.403Z,75.58
2023-02-22T08:38:35.238Z,75.58
2023-02-22T08:41:08.002Z,75.73
2023-02-22T08:43:40.134Z,75.72
2023-02-22T08:46:12.313Z,75.55
2023-02-22T08:48:52.925Z,75.79
2023-02-22T08:51:27.676Z,75.56
2023-02-22T08:54:00.304Z,75.49
2023-02-22T08:56:33.572Z,75.42
2023-02-22T08:59:05.702Z,75.58
2023-02-22T09:01:38.674Z,75.57
2023-02-22T09:04:11.512Z,75.45
2023-02-22T09:06:48.601Z,75.35
2023-02-22T09:09:21.435Z,75.43
2023-02-22T09:11:53.606Z,75.27
2023-02-22T09:14:25.676Z,75.14
2023-02-22T09:17:00.567Z,75.35
2023-02-22T09:19:32.675Z,75.40
2023-02-22T09:22:04.899Z,75.34
2023-02-22T09:24:37.349Z,75.38
2023-02-22T09:27:10.992Z,75.38
2023-02-22T09:29:42.958Z,75.41
2023-02-22T09:32:18.296Z,75.33
2023-02-22T09:34:52.371Z,75.19
2023-02-22T09:37:24.642Z,75.26
2023-02-22T09:39:56.760Z,75.22
2023-02-22T09:42:36.064Z,75.35
2023-02-22T09:45:15.409Z,75.38
2023-02-22T09:47:51.497Z,75.28
2023-02-22T09:50:27.909Z,75.26
2023-02-22T09:53:06.102Z,75.16
2023-02-22T09:55:43.299Z,74.94
2023-02-22T09:58:23.758Z,74.84
2023-02-22T10:01:05.759Z,74.81
2023-02-22T10:03:44.066Z,74.88
2023-02-22T10:06:21.885Z,74.69
2023-02-22T10:08:58.814Z,74.82
2023-02-22T10:11:45.465Z,75.02
2023-02-22T10:14:43.807Z,75.06
2023-02-22T10:17:29.776Z,75.11
2023-02-22T10:20:21.597Z,74.86
2023-02-22T10:23:04.835Z,74.77
2023-02-22T10:25:40.422Z,74.79
2023-02-22T10:28:19.731Z,74.67
2023-02-22T10:30:56.841Z,74.53
2023-02-22T10:33:33.337Z,74.62
2023-02-22T10:36:06.410Z,74.71
2023-02-22T10:38:39.929Z,74.62
2023-02-22T10:41:25.495Z,74.78
2023-02-22T10:43:58.685Z,74.61
2023-02-22T10:46:33.335Z,74.41
2023-02-22T10:49:08.683Z,73.99
2023-02-22T10:51:40.755Z,74.03
2023-02-22T10:54:27.880Z,73.90
2023-02-22T10:57:04.199Z,74.05
2023-02-22T10:59:38.727Z,74.13
2023-02-22T11:02:21.933Z,74.20
2023-02-22T11:04:55.421Z,74.42
2023-02-22T11:07:31.001Z,74.38
2023-02-22T11:10:05.425Z,74.30
2023-02-22T11:12:39.536Z,74.25
2023-02-22T11:15:31.411Z,74.34
2023-02-22T11:18:04.314Z,74.33
2023-02-22T11:20:40.743Z,74.37
2023-02-22T11:23:13.797Z,74.44
2023-02-22T11:25:45.812Z,74.33
2023-02-22T11:28:31.168Z,74.51
2023-02-22T11:31:15.940Z,74.48
2023-02-22T11:36:38.140Z,74.24
2023-02-22T11:39:25.717Z,74.18
2023-02-22T11:41:59.378Z,74.25
2023-02-22T11:44:33.397Z,74.33
2023-02-22T11:47:12.675Z,74.31
2023-02-22T11:49:47.683Z,74.10
2023-02-22T11:52:28.480Z,73.98
2023-02-22T11:55:11.084Z,74.07
2023-02-22T11:57:56.835Z,74.03
2023-02-22T12:00:41.814Z,74.06
2023-02-22T12:03:36.486Z,74.02
2023-02-22T12:06:19.748Z,73.78
2023-02-22T12:09:04.719Z,73.90
2023-02-22T12:11:45.770Z,73.90
2023-02-22T12:14:27.512Z,73.71
2023-02-22T12:17:19.338Z,73.88
2023-02-22T12:19:54.526Z,73.65
2023-02-22T12:22:33.625Z,73.75
2023-02-22T12:25:19.665Z,73.54
2023-02-22T12:27:56.946Z,73.70
2023-02-22T12:30:37.003Z,73.56
2023-02-22T12:33:16.016Z,73.67
2023-02-22T12:35:55.096Z,73.72
2023-02-22T12:38:37.463Z,73.71
2023-02-22T12:41:19.564Z,73.70
2023-02-22T12:43:57.633Z,73.58
2023-02-22T12:46:35.550Z,73.47
2023-02-22T12:49:17.877Z,73.45
2023-02-22T12:51:55.746Z,73.53
2023-02-22T12:54:39.013Z,73.49
2023-02-22T12:57:19.382Z,73.39
2023-02-22T12:59:54.637Z,73.49
2023-02-22T13:02:33.973Z,73.47
2023-02-22T13:05:06.612Z,73.37
2023-02-22T13:07:50.570Z,73.50
2023-02-22T13:10:40.747Z,73.22
2023-02-22T13:13:21.689Z,73.23
2023-02-22T13:16:04.387Z,73.21
2023-02-22T13:18:42.903Z,73.20
2023-02-22T13:21:24.464Z,73.24
2023-02-22T13:24:05.514Z,73.10
2023-02-22T13:26:45.810Z,73.16
2023-02-22T13:29:21.850Z,73.11
2023-02-22T13:32:13.251Z,73.16
2023-02-22T16:07:21.415Z,72.09
2023-02-22T16:09:54.166Z,72.00
2023-02-22T16:12:30.791Z,72.06
2023-02-22T16:15:15.784Z,72.07
2023-02-22T16:18:01.522Z,72.00
2023-02-22T16:20:37.314Z,71.99
2023-02-22T16:23:26.678Z,72.03
2023-02-22T16:26:23.494Z,71.97
2023-02-22T16:28:58.420Z,71.95
2023-02-22T16:31:34.039Z,71.95
2023-02-22T16:34:08.451Z,71.88
2023-02-22T16:36:43.084Z,71.91
2023-02-22T16:39:23.726Z,71.78
2023-02-22T16:41:58.586Z,71.85
2023-02-22T16:44:31.833Z,71.90
2023-02-22T16:47:04.614Z,71.79
2023-02-22T16:49:36.672Z,71.72
2023-02-22T16:52:09.843Z,71.75
2023-02-22T16:54:45.324Z,71.69
2023-02-22T16:57:21.837Z,71.65
2023-02-22T16:59:56.073Z,71.68
2023-02-22T17:02:28.551Z,71.61
2023-02-22T17:05:03.305Z,71.65
2023-02-22T17:07:35.670Z,71.66
2023-02-22T17:10:08.465Z,71.62
2023-02-22T17:12:44.208Z,71.70
2023-02-22T17:15:22.799Z,71.68
2023-02-22T17:17:56.437Z,71.65
2023-02-22T17:20:31.129Z,71.71
2023-02-22T17:23:05.456Z,71.70
2023-02-22T17:25:42.238Z,71.73
2023-02-22T17:28:14.838Z,71.61
2023-02-22T17:30:49.132Z,71.57
2023-02-22T17:33:26.857Z,71.66
2023-02-22T17:36:01.900Z,71.74
2023-02-22T17:38:34.898Z,71.66
2023-02-22T17:41:09.402Z,71.63
2023-02-22T17:43:41.776Z,71.63
2023-02-22T17:46:14.162Z,71.53
2023-02-22T17:48:48.564Z,71.68
2023-02-22T17:51:21.723Z,71.70
2023-02-22T17:53:54.361Z,71.67
2023-02-22T17:56:26.424Z,71.73
2023-02-22T17:58:58.680Z,71.80
2023-02-22T18:01:33.873Z,71.66
2023-02-22T18:04:06.989Z,71.66
2023-02-22T18:06:40.200Z,71.63
2023-02-22T18:09:14.728Z,71.63
2023-02-22T18:11:47.821Z,71.63
2023-02-22T18:14:19.868Z,71.68
2023-02-22T18:16:52.227Z,71.62
2023-02-22T18:19:24.225Z,71.61
2023-02-22T18:22:00.326Z,71.53
2023-02-22T18:24:36.179Z,71.64
2023-02-22T18:27:08.590Z,71.48
2023-02-22T18:29:40.672Z,71.49
2023-02-22T18:32:13.389Z,71.56
2023-02-22T18:34:46.037Z,71.47
2023-02-22T18:37:20.650Z,71.66
2023-02-22T18:39:55.672Z,71.49
2023-02-22T18:42:29.455Z,71.53
2023-02-22T18:45:04.810Z,71.46
2023-02-22T18:47:42.213Z,71.45
2023-02-22T18:50:17.602Z,71.56
2023-02-22T18:52:49.926Z,71.46
2023-02-22T18:55:23.552Z,71.48
2023-02-22T18:57:56.124Z,71.51
2023-02-22T19:00:29.637Z,71.41
2023-02-22T19:03:02.612Z,71.53
2023-02-22T19:05:36.389Z,71.44
2023-02-22T19:08:11.504Z,71.40
2023-02-22T19:10:43.732Z,71.52
2023-02-22T19:13:16.830Z,71.51
2023-02-22T19:15:49.177Z,71.32
2023-02-22T19:18:21.861Z,71.40
2023-02-22T19:21:00.203Z,71.41
2023-02-22T19:23:34.531Z,71.37
2023-02-22T19:26:09.487Z,71.37
2023-02-22T19:28:41.647Z,71.30
2023-02-22T19:31:15.966Z,71.46
2023-02-22T19:33:51.412Z,71.37
2023-02-22T19:36:24.522Z,71.36
2023-02-22T19:38:56.603Z,71.44
2023-02-22T19:41:28.906Z,71.24
2023-02-22T19:44:02.435Z,71.29
2023-02-22T19:46:34.709Z,71.27
2023-02-22T19:49:07.716Z,71.27
2023-02-22T19:51:40.203Z,71.27
2023-02-22T19:54:17.632Z,71.35
2023-02-22T19:56:52.000Z,71.30
2023-02-22T19:59:24.128Z,71.25
2023-02-22T20:01:57.124Z,71.25
2023-02-22T20:04:30.982Z,71.19
2023-02-22T20:07:04.090Z,71.15
2023-02-22T20:09:39.745Z,71.15
2023-02-22T20:12:12.585Z,71.19
2023-02-22T20:14:46.356Z,71.21
2023-02-22T20:17:18.528Z,71.20
2023-02-22T20:19:51.061Z,71.15
2023-02-22T20:22:23.653Z,71.08
2023-02-22T20:24:55.758Z,71.10
2023-02-22T20:27:28.028Z,71.11
2023-02-22T20:30:02.189Z,71.15
2023-02-22T20:32:34.482Z,71.07
2023-02-22T20:35:07.758Z,71.08
2023-02-22T20:37:42.728Z,71.05
2023-02-22T20:40:14.870Z,71.09
2023-02-22T20:42:47.641Z,71.08
2023-02-22T20:45:20.050Z,70.95
2023-02-22T20:47:52.480Z,70.95
2023-02-22T20:50:25.077Z,71.00
2023-02-22T20:52:59.479Z,71.11
2023-02-22T20:55:31.631Z,70.94
2023-02-22T20:58:04.684Z,71.10
2023-02-22T21:00:36.785Z,71.06
2023-02-22T21:03:09.587Z,71.05
2023-02-22T21:05:45.630Z,70.97
2023-02-22T21:08:18.208Z,70.93
2023-02-22T21:10:50.688Z,70.93
2023-02-22T21:13:23.359Z,70.93
2023-02-22T21:15:55.747Z,70.89
2023-02-22T21:18:28.288Z,70.88
2023-02-22T21:21:10.336Z,70.97
2023-02-22T21:23:43.899Z,70.89
2023-02-22T21:26:18.762Z,70.98
2023-02-22T21:28:51.900Z,70.79
2023-02-22T21:31:25.803Z,70.77
2023-02-22T21:34:00.211Z,70.81
2023-02-22T21:36:32.397Z,70.94
2023-02-22T21:39:18.114Z,70.86
2023-02-22T21:41:52.952Z,70.89
2023-02-22T21:44:25.050Z,70.78
2023-02-22T21:46:59.596Z,70.92
2023-02-22T21:49:31.996Z,70.84
2023-02-22T21:52:07.859Z,70.80
2023-02-22T21:54:40.218Z,70.84
2023-02-22T21:57:12.498Z,70.77
2023-02-22T21:59:45.001Z,70.69
2023-02-22T22:02:17.271Z,70.68
2023-02-22T22:04:50.576Z,70.67
2023-02-22T22:07:23.125Z,70.73
2023-02-22T22:09:56.915Z,70.68
2023-02-22T22:12:38.801Z,70.62
2023-02-22T22:15:16.577Z,70.58
2023-02-22T22:17:49.195Z,70.67
2023-02-22T22:20:22.582Z,70.68
2023-02-22T22:22:55.083Z,70.59
2023-02-22T22:25:28.585Z,70.48
2023-02-22T22:28:01.353Z,70.55
2023-02-22T22:30:34.805Z,70.59
2023-02-22T22:33:11.415Z,70.56
2023-02-22T22:35:43.794Z,70.56
2023-02-22T22:38:16.020Z,70.51
2023-02-22T22:40:51.408Z,70.64
2023-02-22T22:43:23.548Z,70.48
2023-02-22T22:45:55.624Z,70.50
2023-02-22T22:48:28.117Z,70.49
2023-02-22T22:51:06.861Z,70.52
2023-02-22T22:53:41.147Z,70.48
2023-02-22T22:56:16.191Z,70.55
2023-02-22T22:58:51.016Z,70.48
2023-02-22T23:01:27.845Z,70.48
2023-02-22T23:04:02.681Z,70.48
2023-02-22T23:06:36.654Z,70.49
2023-02-22T23:09:12.343Z,70.40
2023-02-22T23:11:46.708Z,70.56
2023-02-22T23:14:21.141Z,70.49
2023-02-22T23:16:56.662Z,70.33
2023-02-22T23:19:28.756Z,70.41
2023-02-22T23:22:05.531Z,70.29
2023-02-22T23:24:39.529Z,70.35
2023-02-22T23:27:12.459Z,70.22
2023-02-22T23:29:47.079Z,70.33
2023-02-22T23:32:19.815Z,70.25
2023-02-22T23:34:52.092Z,70.20
2023-02-22T23:37:25.952Z,70.30
2023-02-22T23:40:00.509Z,70.33
2023-02-22T23:42:32.578Z,70.11
2023-02-22T23:45:05.806Z,70.16
2023-02-22T23:47:38.845Z,70.16
2023-02-22T23:50:13.682Z,70.10
2023-02-22T23:52:46.448Z,69.95
2023-02-22T23:55:21.222Z,69.96
2023-02-22T23:58:00.452Z,70.01
